West Pittsburg, Pennsylvania
Current Conditions -  °F | °C
As of 5:47 PM on Wednesday 17 Dec 2014 (Local Time) from KBVI Reporting Station
Overcast Overcast  
Wind Chill: -5°   Ceiling: 1600
Heat Index: -1°   Visibility: 10mi
Dew Point: -3°   Wind: 8mph
Humidity: 86%   Direction: 290°WNW
Pressure: 30.07"   Gusts: NA
Location:  40.93°N, 80.36°W
Report Text: KBVI 172247Z 29007KT 10SM OVC016 M01/M03 A3007
Loading
Personal Weather Stations






























Interactive Weather Map New forecast layout! Learn more

10-Day Weather Forecast

Advertisements
Track Severe Weather on mobile